Ride Results

Endurance Classic Stirling's Crossing (01-05-2021)
Ride distance: 120.0 km Elevator

Outcomes - Endurance Classic Stirling's Crossing (01-05-2021)
Division No. of Entries Retired / DNE Completed Withdrawn Ineligible V/O Percentage Completed
HW 7 4 1 - - 2 71.43%
MW 17 5 7 - - 5 70.59%
LW 27 8 12 1 - 6 74.07%
JN 17 8 5 3 - 1 76.47%
Totals 68 25 25 4 - 14 73.53%
Results - Endurance Classic Stirling's Crossing (01-05-2021)
No. Rider Horse Place Time Leg Speeds Total
Km/Hr
H/R bpm
Heavyweight
202 Peter Field Rkayn Xuberant 1 (BC) 10:09:50 12.9, 11.1, 11.1 11.81 36, 39, 42, 44 (Avg:41)
203 Richard Turberville Simbah JPA Retired/DNE L2 6:48:09 12.2, 11.1 11.76 35, 44, 42 (Avg:43)
206 Jamie Green Oso Hey Harley Retired/DNE L2 6:58:17 12.5, 10.2 11.48 32, 47, 50 (Avg:48)
17 Corey Nix Macrocarpa Rolex Retired/DNE L2 9:05:07 9.6, 7.8 8.81 31, 36, 42 (Avg:39)
201 Jenny Bidner Cooroora Mythril Retired/DNE L2 9:44:39 9.0, 7.2 8.21 39, 44, 58 (Avg:51)
204 Mark Nimon Abbeywood Bright Spark Heart Rate L3 9:02:54 15.0, 11.9, 12.6 13.26 32, 47, 48, 63 (Avg:52)
205 Arron Turnbull JR Lame L1 5:00:00 9.3 9.40 48, 50 (Avg:50)
Middleweight
10 Virginia Barber Burralga Thunderbolt 1 7:14:33 16.9, 14.3, 18.4 16.57 40, 51, 51, 60 (Avg:54)
7 Matthew Sample Cedar Ridge Lyric 2 (BC) 7:28:25 16.0, 15.2, 16.7 16.06 32, 47, 54, 53 (Avg:51)
8 Matty Sample Brookleigh Gandalf 2 7:28:25 16.0, 15.2, 16.8 16.06 30, 44, 45, 50 (Avg:46)
3 Steve Gray Bluedawn Amir 4 7:49:22 16.0, 15.1, 14.6 15.34 43, 44, 43, 60 (Avg:49)
6 Gayle Holmes Brookleigh Beyonce 5 8:48:00 14.0, 12.8, 13.8 13.64 37, 44, 51, 51 (Avg:48)
18 Fiona Fenech Ramalea Phantom 6 9:02:57 14.7, 13.1, 11.9 13.26 35, 41, 43, 51 (Avg:45)
11 Ken Moir Picnic Park Vanita 7 9:20:59 14.8, 11.7, 11.8 12.83 34, 49, 50, 57 (Avg:52)
9 Angela Head Jazda Conan Retired/DNE L2 4:48:18 17.0, 16.0 16.65 37, 42, 46 (Avg:44)
5 Scarlet McQueen Stirling's Vada Retired/DNE L2 6:16:57 12.4, 13.1 12.73 36, 54 (Avg:54)
4 Adrianna Pott Shanelli-Park Phoenix Retired/DNE L2 6:20:37 14.6, 10.5 12.61 34, 47, 46 (Avg:46)
12 Tracey Eastaughffe Coolinda Park Watson Retired/DNE L2 6:58:21 12.5, 10.2 11.47 39, 42, 41 (Avg:41)
15 Phoebe Wilson S'Shaada Cosmopolitan Retired/DNE L2 8:47:35 9.5, 8.5 9.10 48, 48, 46 (Avg:47)
16 Alana Simpson Meea Heart Rate L3 7:56:36 17.3, 15.7, 12.7 15.11 87, 46, 50, 62 (Avg:52)
13 Xanthe Webb Bremervale Bey Huckleberry Lame L3 8:12:59 16.0, 13.3, 14.1 14.60 33, 42, 47, 50 (Avg:46)
2 Saasha Grogan Halo Rhapsody In Blue Gall or injury L2 5:23:00 14.3, 15.6 14.86 47, 47, 60 (Avg:53)
1 Debra McQueen Kynnum Park Mr Epona Metabolics moderate L2 5:51:52 14.3, 12.7 13.64 55, 47, 50 (Avg:48)
14 Jo Barsby Bonnybrooke Waratah Heart Rate L2 7:17:07 10.7, 11.3 10.98 38, 55, 65 (Avg:60)
Lightweight
359 Renee Kelso PVE Remington 1 (BC) 7:14:22 17.4, 15.8, 16.2 16.58 29, 43, 46, 50 (Avg:46)
360 Janelle Taylor Elite Samaree 2 7:27:05 17.0, 16.3, 14.9 16.10 33, 43, 51, 59 (Avg:51)
357 Lexi Webb Bremervale Winchester 2 7:27:05 17.4, 15.7, 15.0 16.10 39, 45, 49, 51 (Avg:48)
348 Nikki Sample Anglesea Finneas 4 7:28:20 16.0, 15.1, 16.8 16.06 45, 43, 49, 52 (Avg:48)
344 Shelley Chapman Cameo Bizmarck 5 9:34:00 14.6, 10.5, 12.4 12.54 34, 43, 51, 49 (Avg:47)
352 Liesel Houtkamp Gheerulla Lucius 6 9:41:19 13.3, 11.0, 12.5 12.39 32, 44, 41, 46 (Avg:43)
355 Sue Sutcliffe Picnic Park Magic Merlin 7 9:41:23 13.3, 11.0, 12.5 12.38 34, 45, 51, 53 (Avg:49)
343 Maeve Paten Box Hill Nitro 8 9:42:31 14.6, 10.5, 11.8 12.36 30, 43, 46, 47 (Avg:45)
363 Aanja Hamelink Picnic Park Klassiqua 9 10:09:40 13.0, 11.1, 11.1 11.81 37, 41, 46, 45 (Avg:44)
362 Karen Winkel Ranek Boz 9 10:09:40 13.0, 11.1, 11.1 11.81 33, 44, 55, 43 (Avg:47)
350 Vic Alran My Name is Earl 11 10:28:16 12.0, 10.8, 11.2 11.46 34, 46, 47, 48 (Avg:47)
361 Adrian Brickley Cameo Crimzon Moon 12 10:28:19 12.1, 10.8, 11.2 11.46 38, 45, 48, 48 (Avg:47)
358 Anna Wyroslak Bacchante Dakota Retired/DNE L2 5:53:33 15.0, 11.9 13.58 32, 46, 51 (Avg:48)
354 Rosemary Hull Shardell Memphis Retired/DNE L2 6:50:01 12.4, 10.7 11.71 39, 51, 51 (Avg:51)
345 Celia Hodgson Brookleigh Stockholm Retired/DNE L2 7:06:47 12.0, 10.2 11.25 36, 44, 48 (Avg:46)
346 Brooke Marshall Stirling's Cleo Retired/DNE L2 7:30:24 11.2, 9.8 10.66 33, 44, 45 (Avg:44)
356 Ash Christofis Maniac Retired/DNE L2 8:00:13 11.2, 8.6 10.00 37, 42, 44 (Avg:43)
340 Jenny Lyons-Negus FireDare Retired/DNE L2 8:23:34 11.6, 7.5 9.53 55, 49, 51 (Avg:50)
347 Ema Basic Anastazia VA Retired/DNE L2 8:47:48 9.5, 8.5 9.09 48, 41, 46 (Avg:43)
364 Adriana Sardoni Cedarton Sh'Tarn Retired/DNE L2 9:44:48 8.9, 7.3 8.21 34, 44, 53 (Avg:48)
366 Amaya Thomas Riverfire Lame L3 9:03:13 14.7, 13.1, 11.9 13.25 42, 44, 52, 49 (Avg:48)
351 Leigh Ann Sample Brookleigh Homer Lame L3 9:41:30 13.3, 11.0, 12.5 12.38 36, 39, 44, 48 (Avg:43)
365 Victoria Clarke Maraahn E'Jaaz W/D on track L2 6:15:00 - 12.80 35, 44, 44 (Avg:44)
353 Suzie Berryman Monster Energy Lame L1 2:41:48 17.4 17.43 36, 45 (Avg:45)
367 Emma Dimech Yarramine Regal Heart Rate L1 2:46:29 16.9 16.94 39, 56 (Avg:56)
349 Clare Fleming Flemingo Bomsaway Lame L1 3:53:18 12.0 12.09 34, 47 (Avg:47)
341 Samantha Rundell Hinterland Cinnabar Lame L1 5:12:57 9.0 9.01 29, 47 (Avg:47)
Junior
274 Noah Hoogland Steel Poppy Hot Chocolate 1 (BC) 8:01:35 16.9, 16.0, 12.5 14.95 48, 52, 48, 50 (Avg:50)
272 Tahlea Lochtenberg Henley Farm Nadif 2 8:47:44 14.0, 12.8, 13.8 13.64 34, 45, 52, 59 (Avg:52)
265 Neeve Whittaker Drumlin History 3 9:21:01 14.8, 11.7, 11.8 12.83 33, 37, 44, 49 (Avg:43)
268 Mikaylah Newberry Duray Spartakos 4 10:28:20 12.0, 10.8, 11.2 11.46 33, 42, 51, 51 (Avg:48)
275 Mary Duncan Bonnybrooke Samarai 5 12:19:44 9.9, 9.9, 9.2 9.73 36, 41, 42, 50 (Avg:44)
270 Molly Renner Aloha Evening Song Retired/DNE L2 7:07:13 12.0, 10.2 11.24 30, 41, 39 (Avg:40)
267 Charlize Renner Aloha Sonata Retired/DNE L2 7:07:20 12.0, 10.2 11.23 31, 43, 47 (Avg:45)
273 Emily Newman-Tyler Stirling's Farrah Retired/DNE L2 7:30:32 11.2, 9.8 10.65 34, 42, 45 (Avg:43)
266 Charlotte Williamson Maverick Retired/DNE L2 9:02:15 9.9, 7.6 8.85 41, 44, 49 (Avg:46)
271 Tilly Goodhew Merlin GG Retired/DNE L2 9:02:20 9.9, 7.6 8.85 34, 45, 48 (Avg:46)
278 Sanjay Nix Macrocarpa Kaos Retired/DNE L2 9:05:22 9.6, 7.8 8.80 35, 42, 48 (Avg:45)
277 Talyn Nix MacrocarpaRed Phloyd Retired/DNE L2 9:05:24 9.6, 7.8 8.80 45, 38, 47 (Avg:42)
262 Emily Rizk El Taj Farina Retired/DNE L2 9:55:11 9.4, 6.6 8.06 39, 46, 57 (Avg:51)
261 Georgie Barber La Belle Amour Lame L3 7:14:29 16.9, 14.3, 18.4 16.57 40, 46, 51, 56 (Avg:51)
264 Indra Hofstee Mub Her W/D on track L2 10:02:19 - 7.97 39, 40 (Avg:40)
276 Chintzia Campo Maloo Vale Amir Halo W/D on track L1 4:30:00 - 10.44 37, 39 (Avg:39)
263 Sam Long Mr Fait Accompli W/D on track L1 5:23:00 - 8.73 40, 46 (Avg:46)